Ganyu, China
Current Conditions -  °F | °C
As of 3:00 PM on Saturday 25 Oct 2014 (Local Time) from ZSQD Reporting Station
Clear Clear  
Wind Chill: 73°   Ceiling: Unl
Heat Index: 73°   Visibility: 6mi
Dew Point: 54°   Wind: 11mph
Humidity: 50%   Direction: 170°S
Pressure: 29.97"   Gusts: NA
Location:  34.83°N, 119.13°E
Report Text: ZSQD 250700Z 17005MPS 150V210 CAVOK 23/12 Q1015 NOSIG
Loading
Personal Weather Stations






























Interactive Weather Map
Tropical Storm Tracking
New forecast layout! Learn more

10-Day Weather Forecast

Advertisements
Track Severe Weather on mobile